Time;durP1;ratioP1;P1;durP2;ratioP2;P2;SDS_P1;SDS_P2;PMS_P1;PMS_P2;Temp;Humidity;BMP_temperature;BMP_pressure;BME280_temperature;BME280_humidity;BME280_pressure;Samples;Min_cycle;Max_cycle;Signal;HPM_P1;HPM_P2
2023/11/20 00:02:02;;;;;;;;;;;;;;;-4.93;54.94;100343.69;5092606;28;19983;-72
2023/11/20 00:04:28;;;;;;;;;;;;;;;-4.78;55.82;100333.59;5125025;27;20410;-73
2023/11/20 00:06:53;;;;;;;;;;;;;;;-4.59;55.84;100333.03;5088209;28;20034;-73
2023/11/20 00:09:19;;;;;;;;;;;;;;;-4.48;54.96;100326.97;5089997;28;20445;-73
2023/11/20 00:11:45;;;;;;;;;;;;;;;-4.60;55.16;100322.00;5087844;28;19924;-73
2023/11/20 00:14:11;;;;;;;;;;;;;;;-4.56;55.14;100323.97;5097324;28;20369;-73
2023/11/20 00:16:37;;;;;;;;;;;;;;;-4.50;55.15;100317.47;5087773;28;20297;-73
2023/11/20 00:19:06;;;;;;;;;;;;;;;-4.52;54.36;100322.47;5088966;28;20305;-73
2023/11/20 00:21:33;;;;;;;;;;;;;;;-4.48;55.38;100329.50;5086135;28;20420;-73
2023/11/20 00:23:59;;;;;;;;;;;;;;;-4.34;55.40;100315.09;5090434;28;20017;-73
2023/11/20 00:26:24;;;;;;;;;;;;;;;-4.27;55.02;100311.22;5095887;28;19936;-73
2023/11/20 00:28:59;;;;;;;;;;;;;;;-4.22;54.99;100325.09;5056825;28;19928;-75
2023/11/20 00:31:25;;;;;;;;;;;;;;;-4.26;54.37;100321.47;5089509;28;19928;-74
2023/11/20 00:33:51;;;;;;;;;;;;;;;-4.53;53.20;100313.09;5078853;28;20287;-74
2023/11/20 00:36:18;;;;;;;;;;;;;;;-4.88;53.62;100314.38;5070095;28;20354;-70
2023/11/20 00:38:45;;;;;;;;;;;;;;;-5.33;54.05;100279.50;5123548;27;19965;-72
2023/11/20 00:41:11;;;;;;;;;;;;;;;-5.03;55.12;100317.72;5106579;27;20361;-71
2023/11/20 00:43:36;;;;;;;;;;;;;;;-4.77;55.49;100318.44;5124187;27;19947;-71
2023/11/20 00:46:03;;;;;;;;;;;;;;;-4.54;55.49;100311.34;5082765;28;19924;-71
2023/11/20 00:48:31;;;;;;;;;;;;;;;-4.63;54.73;100311.66;5056248;28;19927;-70
2023/11/20 00:50:56;;;;;;;;;;;;;;;-4.65;54.92;100313.22;5090200;28;19919;-71
2023/11/20 00:53:22;;;;;;;;;;;;;;;-4.79;53.87;100309.84;5088016;28;20314;-70
2023/11/20 00:55:49;;;;;;;;;;;;;;;-4.85;54.90;100314.53;5085822;28;19920;-71
2023/11/20 00:58:15;;;;;;;;;;;;;;;-4.84;54.00;100312.13;5107581;27;19954;-71
2023/11/20 01:00:41;;;;;;;;;;;;;;;-4.97;55.04;100308.72;5090420;28;19934;-69
2023/11/20 01:03:16;;;;;;;;;;;;;;;-4.99;54.76;100301.91;5087704;28;19963;-70
2023/11/20 01:05:42;;;;;;;;;;;;;;;-5.02;54.98;100301.69;5071827;28;19935;-71
2023/11/20 01:08:09;;;;;;;;;;;;;;;-5.16;54.99;100299.97;5087098;28;19920;-71
2023/11/20 01:10:35;;;;;;;;;;;;;;;-5.12;55.99;100303.56;5095696;28;19920;-70
2023/11/20 01:13:00;;;;;;;;;;;;;;;-5.01;55.16;100298.38;5070402;28;19927;-70
2023/11/20 01:15:29;;;;;;;;;;;;;;;-4.93;55.90;100301.38;5070990;28;19971;-70
2023/11/20 01:17:55;;;;;;;;;;;;;;;-4.97;54.96;100299.47;5091376;28;20302;-70
2023/11/20 01:20:21;;;;;;;;;;;;;;;-5.10;55.63;100302.91;5051711;28;20367;-69
2023/11/20 01:22:47;;;;;;;;;;;;;;;-4.89;55.73;100302.47;5092357;28;19924;-70
2023/11/20 01:25:12;;;;;;;;;;;;;;;-4.73;55.48;100296.63;5105756;28;19931;-71
2023/11/20 01:27:38;;;;;;;;;;;;;;;-4.66;55.55;100297.91;5059995;28;20031;-73
2023/11/20 01:30:04;;;;;;;;;;;;;;;-4.57;55.66;100293.38;5089222;28;20417;-72
2023/11/20 01:32:30;;;;;;;;;;;;;;;-4.59;54.66;100307.63;5086298;28;19928;-73
2023/11/20 01:34:57;;;;;;;;;;;;;;;-4.59;55.27;100294.94;5085511;28;20376;-72
2023/11/20 01:37:23;;;;;;;;;;;;;;;-4.47;55.32;100298.22;5086018;28;20411;-72
2023/11/20 01:39:48;;;;;;;;;;;;;;;-4.44;55.11;100294.97;5090871;28;19920;-71
2023/11/20 01:42:14;;;;;;;;;;;;;;;-4.64;54.56;100288.72;5070457;28;19976;-71
2023/11/20 01:44:40;;;;;;;;;;;;;;;-4.75;54.63;100290.63;5086910;28;19924;-72
2023/11/20 01:47:06;;;;;;;;;;;;;;;-4.87;54.64;100260.28;5107334;28;19923;-72
2023/11/20 01:49:32;;;;;;;;;;;;;;;-4.70;54.99;100284.13;5091000;28;19959;-73
2023/11/20 01:51:58;;;;;;;;;;;;;;;-4.55;55.38;100282.53;5092425;28;19931;-72
2023/11/20 01:54:24;;;;;;;;;;;;;;;-4.39;55.59;100283.44;5075947;28;20293;-72
2023/11/20 01:56:50;;;;;;;;;;;;;;;-4.18;55.47;100282.94;5093883;28;19927;-73
2023/11/20 01:59:16;;;;;;;;;;;;;;;-4.16;54.73;100283.91;5128889;27;19919;-72
2023/11/20 02:01:43;;;;;;;;;;;;;;;-4.17;55.66;100283.00;5078121;28;20050;-72
2023/11/20 02:04:09;;;;;;;;;;;;;;;-4.16;54.14;100284.75;5075744;28;19989;-71
2023/11/20 02:06:34;;;;;;;;;;;;;;;-4.13;54.97;100296.78;5127582;27;20384;-72
2023/11/20 02:09:00;;;;;;;;;;;;;;;-4.19;54.37;100291.34;5090452;28;19927;-72
2023/11/20 02:11:26;;;;;;;;;;;;;;;-4.13;55.12;100295.09;5091702;28;19924;-73
2023/11/20 02:13:52;;;;;;;;;;;;;;;-4.09;54.60;100294.50;5099194;28;20274;-71
2023/11/20 02:16:18;;;;;;;;;;;;;;;-4.17;54.67;100298.25;5089954;28;19951;-71
2023/11/20 02:18:44;;;;;;;;;;;;;;;-4.17;53.96;100298.25;5075841;28;19924;-71
2023/11/20 02:21:09;;;;;;;;;;;;;;;-4.18;54.02;100308.34;5091587;28;19927;-71
2023/11/20 02:23:35;;;;;;;;;;;;;;;-4.13;54.75;100304.41;5089996;28;19923;-71
2023/11/20 02:26:02;;;;;;;;;;;;;;;-4.26;53.76;100308.75;5091139;28;19927;-72
2023/11/20 02:28:32;;;;;;;;;;;;;;;-4.34;54.68;100311.66;5097170;28;20104;-72
2023/11/20 02:30:58;;;;;;;;;;;;;;;-4.32;54.66;100310.06;5093411;28;19964;-71
2023/11/20 02:33:24;;;;;;;;;;;;;;;-4.28;54.51;100315.41;5089733;28;19926;-71
2023/11/20 02:35:51;;;;;;;;;;;;;;;-4.55;54.15;100325.72;5109305;27;19993;-71
2023/11/20 02:38:17;;;;;;;;;;;;;;;-4.54;54.45;100319.84;5090098;28;20332;-72
2023/11/20 02:40:42;;;;;;;;;;;;;;;-4.62;55.21;100327.78;5090932;28;20476;-71
2023/11/20 02:43:08;;;;;;;;;;;;;;;-4.73;54.47;100332.19;5091338;28;19930;-73
2023/11/20 02:45:35;;;;;;;;;;;;;;;-4.72;54.32;100323.78;5071898;28;19931;-72
2023/11/20 02:48:01;;;;;;;;;;;;;;;-4.59;55.46;100318.69;5070292;28;19919;-73
2023/11/20 02:50:28;;;;;;;;;;;;;;;-4.48;54.87;100319.34;5096197;28;19928;-73
2023/11/20 02:52:54;;;;;;;;;;;;;;;-4.51;54.40;100311.53;5069523;28;20054;-72
2023/11/20 02:55:20;;;;;;;;;;;;;;;-4.52;55.22;100321.63;5075224;28;20390;-72
2023/11/20 02:57:46;;;;;;;;;;;;;;;-4.63;54.06;100319.28;5071606;28;19926;-72
2023/11/20 03:00:12;;;;;;;;;;;;;;;-4.89;54.56;100316.03;5088916;28;19936;-72
2023/11/20 03:02:38;;;;;;;;;;;;;;;-4.80;55.15;100318.25;5072645;28;20014;-74
2023/11/20 03:05:07;;;;;;;;;;;;;;;-4.66;55.22;100311.47;5088673;28;20019;-72
2023/11/20 03:07:33;;;;;;;;;;;;;;;-4.50;55.00;100310.75;5087152;28;19927;-71
2023/11/20 03:09:59;;;;;;;;;;;;;;;-4.41;55.12;100318.03;5070801;28;20003;-72
2023/11/20 03:12:24;;;;;;;;;;;;;;;-4.50;54.54;100307.31;5091092;28;19920;-72
2023/11/20 03:14:50;;;;;;;;;;;;;;;-4.48;54.21;100310.81;5072142;28;19973;-74
2023/11/20 03:17:17;;;;;;;;;;;;;;;-4.49;54.90;100314.16;5089361;28;19920;-72
2023/11/20 03:19:44;;;;;;;;;;;;;;;-4.40;54.73;100312.16;5089347;28;19924;-72
2023/11/20 03:22:10;;;;;;;;;;;;;;;-4.44;54.53;100313.66;5091538;28;19924;-72
2023/11/20 03:24:35;;;;;;;;;;;;;;;-4.31;54.48;100319.47;5087086;28;19969;-71
2023/11/20 03:27:01;;;;;;;;;;;;;;;-4.24;54.50;100306.34;5087174;28;19972;-71
2023/11/20 03:29:27;;;;;;;;;;;;;;;-4.21;54.02;100305.63;5074926;28;20011;-71
2023/11/20 03:31:53;;;;;;;;;;;;;;;-4.43;53.41;100309.44;5093857;28;20020;-74
2023/11/20 03:34:18;;;;;;;;;;;;;;;-4.43;54.28;100311.97;5093312;28;19920;-74
2023/11/20 03:36:44;;;;;;;;;;;;;;;-4.56;53.64;100301.09;5075473;28;19920;-72
2023/11/20 03:39:10;;;;;;;;;;;;;;;-4.67;53.35;100307.19;5071693;28;20010;-73
2023/11/20 03:41:35;;;;;;;;;;;;;;;-4.78;53.44;100311.59;5076493;28;19924;-72
2023/11/20 03:44:01;;;;;;;;;;;;;;;-4.63;54.32;100308.25;5074573;28;20014;-75
2023/11/20 03:46:27;;;;;;;;;;;;;;;-4.73;53.57;100307.69;5073086;28;19928;-73
2023/11/20 03:48:53;;;;;;;;;;;;;;;-4.67;54.76;100301.25;5093447;27;19920;-71
2023/11/20 03:51:18;;;;;;;;;;;;;;;-4.67;54.18;100303.78;5072582;28;20696;-72
2023/11/20 03:53:44;;;;;;;;;;;;;;;-4.57;55.06;100295.91;5074233;28;19985;-72
2023/11/20 03:56:15;;;;;;;;;;;;;;;-4.52;54.90;100293.66;5088515;28;19919;-73
2023/11/20 03:58:41;;;;;;;;;;;;;;;-4.43;54.95;100291.66;5089293;28;19923;-72
2023/11/20 04:01:08;;;;;;;;;;;;;;;-4.30;54.16;100281.41;5080221;28;19930;-72
2023/11/20 04:03:33;;;;;;;;;;;;;;;-4.18;54.68;100278.72;5091310;28;19924;-71
2023/11/20 04:05:59;;;;;;;;;;;;;;;-4.19;54.32;100283.72;5068106;28;21825;-71
2023/11/20 04:08:25;;;;;;;;;;;;;;;-4.09;54.79;100286.03;5072706;28;20023;-72
2023/11/20 04:10:50;;;;;;;;;;;;;;;-4.01;54.36;100272.06;5087163;28;19979;-78
2023/11/20 04:13:16;;;;;;;;;;;;;;;-3.88;54.11;100270.22;5076511;28;20290;-77
2023/11/20 04:15:42;;;;;;;;;;;;;;;-3.79;54.28;100260.56;5088927;28;19923;-77
2023/11/20 04:18:07;;;;;;;;;;;;;;;-3.84;53.83;100249.25;5076153;28;19987;-78
2023/11/20 04:20:36;;;;;;;;;;;;;;;-3.92;53.97;100248.81;5078170;28;19973;-81
2023/11/20 04:23:03;;;;;;;;;;;;;;;-3.87;53.61;100237.25;5065134;28;19923;-72
2023/11/20 04:25:29;;;;;;;;;;;;;;;-3.90;53.89;100221.81;5073731;28;19930;-70
2023/11/20 04:27:54;;;;;;;;;;;;;;;-3.91;53.44;100225.13;5073062;28;19923;-70
2023/11/20 04:30:20;;;;;;;;;;;;;;;-4.05;53.41;100211.66;5103512;27;19981;-72
2023/11/20 04:32:46;;;;;;;;;;;;;;;-4.07;53.53;100194.56;5094730;28;19942;-71
2023/11/20 04:35:12;;;;;;;;;;;;;;;-3.97;54.13;100189.22;5090571;28;20278;-70
2023/11/20 04:37:38;;;;;;;;;;;;;;;-3.88;53.96;100196.47;5065344;28;19924;-71
2023/11/20 04:40:04;;;;;;;;;;;;;;;-3.86;53.92;100194.91;5121129;27;19959;-70
2023/11/20 04:42:29;;;;;;;;;;;;;;;-4.15;53.92;100168.72;5093758;28;19963;-71
2023/11/20 04:44:55;;;;;;;;;;;;;;;-4.06;53.40;100194.63;5074815;28;20427;-72
2023/11/20 04:47:21;;;;;;;;;;;;;;;-4.10;53.75;100187.66;5091121;28;20014;-72
2023/11/20 04:49:48;;;;;;;;;;;;;;;-4.12;53.62;100190.09;5090199;28;20325;-71
2023/11/20 04:52:14;;;;;;;;;;;;;;;-4.17;53.69;100196.56;5076341;28;20040;-70
2023/11/20 04:54:40;;;;;;;;;;;;;;;-4.11;54.25;100196.06;5075870;28;20027;-72
2023/11/20 04:57:06;;;;;;;;;;;;;;;-4.29;53.37;100194.22;5094877;28;19930;-71
2023/11/20 04:59:31;;;;;;;;;;;;;;;-4.31;54.01;100195.81;5060738;28;19927;-72
2023/11/20 05:01:57;;;;;;;;;;;;;;;-4.20;54.37;100200.63;5074091;28;19962;-70
2023/11/20 05:04:23;;;;;;;;;;;;;;;-4.20;54.28;100200.63;5058162;28;20540;-71
2023/11/20 05:06:48;;;;;;;;;;;;;;;-4.13;53.96;100205.28;5122057;27;19924;-70
2023/11/20 05:09:16;;;;;;;;;;;;;;;-4.14;53.50;100216.22;5120548;27;20142;-72
2023/11/20 05:11:42;;;;;;;;;;;;;;;-4.21;53.98;100219.19;5076265;28;19923;-70
2023/11/20 05:14:08;;;;;;;;;;;;;;;-4.11;53.97;100221.50;5072802;28;20393;-70
2023/11/20 05:16:33;;;;;;;;;;;;;;;-4.09;53.85;100225.00;5076380;28;19924;-70
2023/11/20 05:18:59;;;;;;;;;;;;;;;-4.11;54.05;100224.03;5092333;28;19957;-71
2023/11/20 05:21:25;;;;;;;;;;;;;;;-4.03;54.04;100209.22;5059639;28;20471;-71
2023/11/20 05:23:50;;;;;;;;;;;;;;;-3.92;53.85;100209.81;5060840;28;20387;-71
2023/11/20 05:26:18;;;;;;;;;;;;;;;-3.85;53.99;100200.06;5077076;28;19947;-71
2023/11/20 05:28:44;;;;;;;;;;;;;;;-3.72;53.96;100190.56;5081907;28;19989;-71
2023/11/20 05:31:10;;;;;;;;;;;;;;;-3.69;53.42;100195.81;5079238;28;19927;-71
2023/11/20 05:33:36;;;;;;;;;;;;;;;-3.61;53.47;100198.78;5088455;28;19924;-71
2023/11/20 05:36:03;;;;;;;;;;;;;;;-3.61;53.35;100193.69;5112916;27;19926;-71
2023/11/20 05:38:29;;;;;;;;;;;;;;;-3.62;53.87;100187.72;5113445;27;19979;-70
2023/11/20 05:40:55;;;;;;;;;;;;;;;-3.73;52.25;100179.50;5088667;28;19923;-70
2023/11/20 05:43:21;;;;;;;;;;;;;;;-3.71;53.46;100182.13;5077371;28;19946;-71
2023/11/20 05:45:46;;;;;;;;;;;;;;;-3.91;53.30;100187.00;5089663;28;20012;-71
2023/11/20 05:48:12;;;;;;;;;;;;;;;-4.03;52.48;100192.28;5078968;28;19928;-70
2023/11/20 05:50:38;;;;;;;;;;;;;;;-4.10;53.01;100196.13;5096270;28;19924;-71
2023/11/20 05:53:04;;;;;;;;;;;;;;;-4.06;53.70;100199.72;5078826;28;19967;-71
2023/11/20 05:55:32;;;;;;;;;;;;;;;-3.95;54.03;100198.69;5106539;27;19926;-71
2023/11/20 05:58:01;;;;;;;;;;;;;;;-3.88;53.86;100199.03;5094330;28;19928;-71
2023/11/20 06:00:29;;;;;;;;;;;;;;;-3.84;53.48;100195.84;5094128;28;19920;-71
2023/11/20 06:02:55;;;;;;;;;;;;;;;-3.69;53.73;100191.63;5095696;28;19932;-72
2023/11/20 06:05:21;;;;;;;;;;;;;;;-3.79;52.99;100177.53;5076734;28;19974;-72
2023/11/20 06:07:47;;;;;;;;;;;;;;;-3.77;53.58;100180.13;5094667;28;19966;-71
2023/11/20 06:10:12;;;;;;;;;;;;;;;-3.81;52.35;100175.66;5093049;28;19924;-72
2023/11/20 06:12:39;;;;;;;;;;;;;;;-3.83;52.78;100175.59;5084534;28;19973;-76
2023/11/20 06:15:05;;;;;;;;;;;;;;;-3.81;53.51;100176.56;5068046;28;19963;-72
2023/11/20 06:17:31;;;;;;;;;;;;;;;-3.88;52.75;100177.00;5095090;28;19919;-71
2023/11/20 06:19:57;;;;;;;;;;;;;;;-3.97;53.23;100177.38;5077251;28;19925;-71
2023/11/20 06:22:22;;;;;;;;;;;;;;;-4.07;53.05;100179.31;5096376;28;19920;-71
2023/11/20 06:24:48;;;;;;;;;;;;;;;-4.07;52.37;100182.72;5095637;28;20005;-72
2023/11/20 06:27:14;;;;;;;;;;;;;;;-4.24;53.13;100180.09;5092664;28;19930;-72
2023/11/20 06:29:40;;;;;;;;;;;;;;;-4.29;53.38;100173.88;5113953;27;19931;-72
2023/11/20 06:32:08;;;;;;;;;;;;;;;-4.25;53.96;100173.28;5127845;27;19959;-71
2023/11/20 06:34:34;;;;;;;;;;;;;;;-4.14;53.45;100180.63;5096289;28;20313;-72
2023/11/20 06:37:00;;;;;;;;;;;;;;;-4.25;52.74;100180.03;5083350;28;21682;-71
2023/11/20 06:39:26;;;;;;;;;;;;;;;-4.18;53.74;100173.63;5096131;28;19930;-72
2023/11/20 06:41:55;;;;;;;;;;;;;;;-4.29;53.95;100190.81;5079802;28;19935;-72
2023/11/20 06:44:21;;;;;;;;;;;;;;;-4.41;53.15;100186.75;5082476;28;19931;-71
2023/11/20 06:46:47;;;;;;;;;;;;;;;-4.16;54.50;100179.69;5091126;28;19945;-70
2023/11/20 06:49:13;;;;;;;;;;;;;;;-4.11;54.03;100180.81;5061927;28;19924;-71
2023/11/20 06:51:42;;;;;;;;;;;;;;;-4.01;54.04;100172.91;5094185;28;19923;-72
2023/11/20 06:54:11;;;;;;;;;;;;;;;-3.94;53.79;100176.66;5094022;28;19930;-72
2023/11/20 06:56:37;;;;;;;;;;;;;;;-3.89;53.67;100172.69;5077991;28;19919;-72
2023/11/20 06:59:02;;;;;;;;;;;;;;;-4.04;52.91;100167.63;5093995;28;20335;-71
2023/11/20 07:01:28;;;;;;;;;;;;;;;-4.08;53.18;100160.63;5078381;28;20274;-72
2023/11/20 07:03:56;;;;;;;;;;;;;;;-4.17;53.12;100155.91;5077861;28;20019;-71
2023/11/20 07:06:23;;;;;;;;;;;;;;;-4.05;53.87;100149.78;5060882;28;20403;-72
2023/11/20 07:08:51;;;;;;;;;;;;;;;-3.96;53.70;100146.06;5079693;28;19952;-72
2023/11/20 07:11:17;;;;;;;;;;;;;;;-3.89;53.41;100141.31;5059082;28;20016;-72
2023/11/20 07:13:43;;;;;;;;;;;;;;;-3.78;54.17;100128.41;5094514;28;19989;-73
2023/11/20 07:16:11;;;;;;;;;;;;;;;-3.64;53.98;100123.16;5093728;28;19985;-72
2023/11/20 07:18:36;;;;;;;;;;;;;;;-3.49;53.94;100125.66;5076312;28;19920;-72
2023/11/20 07:21:02;;;;;;;;;;;;;;;-3.53;52.83;100123.75;5095106;28;19943;-72
2023/11/20 07:23:28;;;;;;;;;;;;;;;-3.65;53.49;100126.50;5093520;28;19927;-71
2023/11/20 07:25:53;;;;;;;;;;;;;;;-3.72;53.11;100132.03;5091211;28;20618;-72
2023/11/20 07:28:20;;;;;;;;;;;;;;;-3.83;52.95;100127.28;5095957;28;19931;-71
2023/11/20 07:30:47;;;;;;;;;;;;;;;-3.68;54.16;100108.53;5093435;28;19931;-72
2023/11/20 07:33:14;;;;;;;;;;;;;;;-3.50;53.39;100106.94;5093336;28;19946;-71
2023/11/20 07:35:40;;;;;;;;;;;;;;;-3.39;53.84;100110.06;5095989;28;19935;-71
2023/11/20 07:38:09;;;;;;;;;;;;;;;-3.29;53.66;100111.41;5078215;28;20438;-71
2023/11/20 07:40:36;;;;;;;;;;;;;;;-3.33;53.54;100097.66;5096504;28;19924;-72
2023/11/20 07:43:04;;;;;;;;;;;;;;;-3.21;53.88;100096.56;5093245;28;19924;-71
2023/11/20 07:45:30;;;;;;;;;;;;;;;-3.07;53.31;100087.94;5094669;28;20534;-72
2023/11/20 07:47:56;;;;;;;;;;;;;;;-3.00;53.13;100075.53;5093663;28;19930;-72
2023/11/20 07:50:22;;;;;;;;;;;;;;;-2.98;53.90;100074.78;5092156;28;19924;-71
2023/11/20 07:52:47;;;;;;;;;;;;;;;-3.03;53.20;100078.78;5094791;28;20006;-71
2023/11/20 07:55:13;;;;;;;;;;;;;;;-2.99;53.54;100067.94;5075260;28;19935;-72
2023/11/20 07:57:39;;;;;;;;;;;;;;;-2.97;53.52;100062.91;5098445;27;19924;-71
2023/11/20 08:00:05;;;;;;;;;;;;;;;-2.93;52.91;100064.81;5092354;28;20004;-71
2023/11/20 08:02:39;;;;;;;;;;;;;;;-2.92;52.90;100066.56;5092493;28;20363;-73
2023/11/20 08:05:07;;;;;;;;;;;;;;;-2.92;53.19;100062.38;5077634;28;19924;-73
2023/11/20 08:07:33;;;;;;;;;;;;;;;-2.87;53.05;100070.22;5091625;28;19957;-72
2023/11/20 08:09:59;;;;;;;;;;;;;;;-2.72;53.20;100062.47;5095346;28;19945;-72
2023/11/20 08:12:26;;;;;;;;;;;;;;;-2.63;53.59;100065.44;5122945;27;19924;-72
2023/11/20 08:14:52;;;;;;;;;;;;;;;-2.57;52.83;100064.91;5095106;28;20416;-72
2023/11/20 08:17:18;;;;;;;;;;;;;;;-2.54;53.10;100065.06;5074746;28;19919;-72
2023/11/20 08:19:43;;;;;;;;;;;;;;;-2.64;53.07;100060.28;5076611;28;19970;-73
2023/11/20 08:22:09;;;;;;;;;;;;;;;-2.56;52.72;100061.56;5091078;28;19986;-76
2023/11/20 08:24:35;;;;;;;;;;;;;;;-2.60;52.29;100062.19;5076802;28;19947;-79
2023/11/20 08:27:01;;;;;;;;;;;;;;;-2.51;53.35;100064.31;5088469;28;20081;-75
2023/11/20 08:29:27;;;;;;;;;;;;;;;-2.38;52.69;100055.56;5094666;28;20452;-73
2023/11/20 08:31:53;;;;;;;;;;;;;;;-2.24;53.06;100040.94;5090598;28;19920;-72
2023/11/20 08:34:19;;;;;;;;;;;;;;;-2.14;52.46;100043.97;5092648;28;19927;-81
2023/11/20 08:36:46;;;;;;;;;;;;;;;-1.97;52.33;100047.28;5093255;28;19919;-70
2023/11/20 08:39:12;;;;;;;;;;;;;;;-1.87;52.65;100045.16;5106089;27;19920;-67
2023/11/20 08:41:39;;;;;;;;;;;;;;;-1.75;52.71;100040.59;5090354;28;19930;-69
2023/11/20 08:44:05;;;;;;;;;;;;;;;-1.75;51.89;100037.19;5094447;28;20050;-68
2023/11/20 08:46:31;;;;;;;;;;;;;;;-1.77;52.26;100036.25;5075511;28;20015;-69
2023/11/20 08:48:59;;;;;;;;;;;;;;;-1.79;51.32;100025.97;5092574;28;19920;-71
2023/11/20 08:51:25;;;;;;;;;;;;;;;-1.74;51.74;100034.69;5095420;28;19942;-66
2023/11/20 08:53:51;;;;;;;;;;;;;;;-1.74;51.59;100026.19;5094079;28;20373;-66
2023/11/20 08:56:16;;;;;;;;;;;;;;;-1.64;51.51;100025.75;5093659;28;19924;-69
2023/11/20 08:58:43;;;;;;;;;;;;;;;-1.62;51.94;100029.25;5076701;28;19972;-67
2023/11/20 09:01:08;;;;;;;;;;;;;;;-1.59;52.37;100015.78;5074932;28;20352;-69
2023/11/20 09:03:34;;;;;;;;;;;;;;;-1.45;51.56;100008.72;5075559;28;19927;-71
2023/11/20 09:06:00;;;;;;;;;;;;;;;-1.40;51.77;100017.44;5090939;28;19924;-70
2023/11/20 09:08:26;;;;;;;;;;;;;;;-1.65;51.88;99978.06;5073597;28;19931;-70
2023/11/20 09:10:55;;;;;;;;;;;;;;;-1.40;51.12;100017.44;5107536;27;19966;-68
2023/11/20 09:13:20;;;;;;;;;;;;;;;-1.44;50.99;100015.56;5090958;28;19957;-71
2023/11/20 09:15:46;;;;;;;;;;;;;;;-1.43;51.63;100019.84;5103158;28;19920;-71
2023/11/20 09:18:12;;;;;;;;;;;;;;;-1.45;51.97;100011.28;5094084;28;19920;-72
2023/11/20 09:20:41;;;;;;;;;;;;;;;-1.49;51.42;100014.50;5091046;28;19928;-73
2023/11/20 09:23:09;;;;;;;;;;;;;;;-1.51;51.08;100009.31;5076987;28;19926;-73
2023/11/20 09:25:35;;;;;;;;;;;;;;;-1.47;51.74;100003.53;5063519;28;19993;-71
2023/11/20 09:28:00;;;;;;;;;;;;;;;-1.33;51.97;100016.03;5090602;28;19928;-71
2023/11/20 09:30:27;;;;;;;;;;;;;;;-1.27;51.18;100019.72;5076782;28;19971;-69
2023/11/20 09:32:53;;;;;;;;;;;;;;;-1.27;50.64;100017.16;5091838;28;19985;-71
2023/11/20 09:35:20;;;;;;;;;;;;;;;-1.35;51.03;100010.84;5090650;28;19920;-71
2023/11/20 09:37:49;;;;;;;;;;;;;;;-1.41;51.57;100018.22;5094927;28;19935;-73
2023/11/20 09:40:19;;;;;;;;;;;;;;;-1.43;51.34;100024.94;5074946;28;19984;-70
2023/11/20 09:42:45;;;;;;;;;;;;;;;-1.50;51.29;100020.41;5060075;28;19927;-71
2023/11/20 09:45:26;;;;;;;;;;;;;;;-1.74;51.68;100013.41;5109580;28;19931;-71
2023/11/20 09:47:53;;;;;;;;;;;;;;;-1.72;51.19;100005.00;5076677;28;20045;-69
2023/11/20 09:50:25;;;;;;;;;;;;;;;-1.66;50.52;100009.53;5075634;28;19927;-69
2023/11/20 09:52:51;;;;;;;;;;;;;;;-1.72;51.68;100010.13;5077371;28;19919;-67
2023/11/20 09:55:18;;;;;;;;;;;;;;;-1.71;51.64;100011.88;5091789;28;19955;-68
2023/11/20 09:57:48;;;;;;;;;;;;;;;-1.71;51.23;100018.66;5062068;28;20449;-69
2023/11/20 10:00:17;;;;;;;;;;;;;;;-1.81;51.04;100019.94;5088786;28;19920;-67
2023/11/20 10:02:45;;;;;;;;;;;;;;;-1.78;52.08;100016.63;5091607;28;19988;-67
2023/11/20 10:05:11;;;;;;;;;;;;;;;-1.86;51.42;100018.84;5092518;28;19931;-68
2023/11/20 10:07:38;;;;;;;;;;;;;;;-1.80;52.11;100015.69;5076575;28;19920;-66
2023/11/20 10:10:05;;;;;;;;;;;;;;;-1.75;52.14;100015.09;5096741;28;20006;-65
2023/11/20 10:12:32;;;;;;;;;;;;;;;-1.80;51.49;100006.38;5077511;28;19931;-71
2023/11/20 10:14:59;;;;;;;;;;;;;;;-1.83;51.48;100007.09;5112004;27;19931;-66
2023/11/20 10:17:27;;;;;;;;;;;;;;;-1.91;51.48;100005.91;5080303;28;19928;-74
2023/11/20 10:19:53;;;;;;;;;;;;;;;-1.93;51.73;100002.41;5079700;28;19927;-72
2023/11/20 10:22:25;;;;;;;;;;;;;;;-1.92;52.33;99998.16;5098942;28;19924;-73
2023/11/20 10:24:50;;;;;;;;;;;;;;;-1.91;51.58;99993.13;5080782;28;19963;-70
2023/11/20 10:27:20;;;;;;;;;;;;;;;-1.90;52.27;99983.78;5096953;28;19959;-70
2023/11/20 10:29:46;;;;;;;;;;;;;;;-1.92;52.36;99985.41;5081115;28;19924;-70
2023/11/20 10:32:12;;;;;;;;;;;;;;;-2.04;51.69;99976.41;5081848;28;20039;-70
2023/11/20 10:34:38;;;;;;;;;;;;;;;-2.04;51.38;99981.50;5077588;28;20391;-72
2023/11/20 10:37:09;;;;;;;;;;;;;;;-1.94;52.64;99981.91;5091707;28;19921;-71
2023/11/20 10:39:35;;;;;;;;;;;;;;;-1.85;51.79;99977.22;5100785;28;19926;-73
2023/11/20 10:42:01;;;;;;;;;;;;;;;-1.82;52.72;99964.59;5079558;28;19920;-75
2023/11/20 10:44:27;;;;;;;;;;;;;;;-1.72;52.70;99970.97;5099833;28;20113;-76
2023/11/20 10:46:53;;;;;;;;;;;;;;;-1.59;52.07;99957.06;5079789;28;20347;-72
2023/11/20 10:49:24;;;;;;;;;;;;;;;-1.61;51.71;99963.78;5087217;28;20014;-72
2023/11/20 10:51:57;;;;;;;;;;;;;;;-1.68;51.95;99960.09;5098952;28;20389;-70
2023/11/20 10:54:43;;;;;;;;;;;;;;;-1.67;52.39;99951.66;5104088;28;19924;-73
2023/11/20 10:57:09;;;;;;;;;;;;;;;-1.67;51.99;99947.41;5095524;28;19969;-71
2023/11/20 10:59:35;;;;;;;;;;;;;;;-1.76;52.57;99947.00;5096045;28;19967;-72
2023/11/20 11:02:03;;;;;;;;;;;;;;;-1.75;52.09;99940.22;5099198;28;19924;-71
2023/11/20 11:04:31;;;;;;;;;;;;;;;-1.73;52.08;99930.97;5096010;28;19924;-71
2023/11/20 11:06:59;;;;;;;;;;;;;;;-1.74;52.73;99927.50;5088773;28;19928;-68
2023/11/20 11:09:27;;;;;;;;;;;;;;;-1.74;52.59;99931.75;5100184;28;20125;-69
2023/11/20 11:11:54;;;;;;;;;;;;;;;-1.74;52.30;99929.22;5057926;28;19920;-70
2023/11/20 11:14:20;;;;;;;;;;;;;;;-1.76;52.36;99926.56;5074298;28;19920;-71
2023/11/20 11:16:58;;;;;;;;;;;;;;;-1.84;51.76;99923.69;5094979;28;19931;-69
2023/11/20 11:19:28;;;;;;;;;;;;;;;-1.89;53.12;99924.31;5103182;27;19966;-69
2023/11/20 11:21:59;;;;;;;;;;;;;;;-1.99;52.14;99917.94;5086963;28;19927;-70
2023/11/20 11:24:27;;;;;;;;;;;;;;;-2.02;53.09;99917.81;5091915;28;19920;-68
2023/11/20 11:27:04;;;;;;;;;;;;;;;-1.97;52.69;99901.03;5090414;28;20023;-68
2023/11/20 11:29:38;;;;;;;;;;;;;;;-2.02;52.51;99899.94;5090141;28;19963;-70
2023/11/20 11:32:06;;;;;;;;;;;;;;;-2.00;52.13;99898.34;5105473;27;20031;-68
2023/11/20 11:34:35;;;;;;;;;;;;;;;-2.03;53.27;99895.66;5087981;28;19927;-70
2023/11/20 11:37:06;;;;;;;;;;;;;;;-2.04;52.83;99886.25;5085508;28;19930;-70
2023/11/20 11:39:36;;;;;;;;;;;;;;;-2.04;53.19;99886.25;5074897;28;20345;-70
2023/11/20 11:42:06;;;;;;;;;;;;;;;-2.24;51.58;99881.16;5081441;28;19920;-70
2023/11/20 11:44:41;;;;;;;;;;;;;;;-2.25;52.94;99879.41;5090474;28;19920;-71
2023/11/20 11:47:16;;;;;;;;;;;;;;;-2.21;53.22;99880.44;5092319;28;19935;-72
2023/11/20 11:49:50;;;;;;;;;;;;;;;-2.18;53.26;99885.66;5073793;28;19924;-79
2023/11/20 11:52:24;;;;;;;;;;;;;;;-2.30;53.05;99871.56;5092396;28;20006;-69
2023/11/20 11:55:08;;;;;;;;;;;;;;;-2.40;53.40;99871.09;5094481;28;19973;-66
2023/11/20 11:57:34;;;;;;;;;;;;;;;-2.38;54.23;99872.03;5105449;27;19919;-67
2023/11/20 12:00:10;;;;;;;;;;;;;;;-2.35;53.43;99874.72;5093214;28;20338;-71
2023/11/20 12:02:53;;;;;;;;;;;;;;;-2.29;53.86;99869.88;5090189;28;20959;-67
2023/11/20 12:05:19;;;;;;;;;;;;;;;-2.27;54.12;99871.72;5090960;28;20018;-70
2023/11/20 12:08:01;;;;;;;;;;;;;;;-2.21;54.04;99877.91;5088313;28;19941;-67
2023/11/20 12:10:39;;;;;;;;;;;;;;;-2.09;53.75;99870.75;5093473;28;20045;-64
2023/11/20 12:13:09;;;;;;;;;;;;;;;-2.17;53.39;99869.56;5089341;28;19927;-66
2023/11/20 12:15:39;;;;;;;;;;;;;;;-2.09;53.64;99870.75;5119967;27;19919;-65
2023/11/20 12:18:11;;;;;;;;;;;;;;;-2.09;53.36;99869.88;5087573;28;19988;-64
2023/11/20 12:20:37;;;;;;;;;;;;;;;-2.19;54.16;99877.16;5087515;28;20366;-64
2023/11/20 12:23:06;;;;;;;;;;;;;;;-2.20;53.95;99877.94;5088697;28;20011;-64
2023/11/20 12:25:34;;;;;;;;;;;;;;;-2.20;53.82;99872.84;5102978;27;19923;-66
2023/11/20 12:28:00;;;;;;;;;;;;;;;-2.16;53.98;99873.84;5084180;28;19977;-66
2023/11/20 12:30:26;;;;;;;;;;;;;;;-2.14;53.66;99869.69;5075501;28;19924;-68
2023/11/20 12:32:54;;;;;;;;;;;;;;;-2.02;53.61;99882.09;5072536;28;19920;-68
2023/11/20 12:35:20;;;;;;;;;;;;;;;-2.05;53.69;99874.31;5075192;28;19919;-69
2023/11/20 12:37:47;;;;;;;;;;;;;;;-2.09;53.75;99872.44;5090990;28;20357;-66